Pagina principale
METAR-TAF:

METAR-TAF

Aeroporti :

Angers, Francia

latitudine: 47-33-37N, longitudine: 000-18-44W, altezza: 59 m

Osservazione

Il bollettino è stato emesso 37 minuti fa, alle 22:00 UTC
Vento 5 kt da nord-est, variando fra nord/nord-est e est
Temperature 25°C
Umidità 47%
Pressione 1019 hPa
Visibilità 10 km o più
nessuna nube inferiore a 1500 m e nessun cumulonembo

METAR: LFJR 222200Z AUTO 05005KT 020V080 CAVOK 25/13 Q1019

Ora: 00:37 (22:37 UTC)


TAF: mancante

Osservazioni e previsioni meteorologiche di più di 4000 aeroporti (messaggi METAR e TAF).

Le stazioni disponibili sono rappresentate dai dischi gialli e rossi sulla carta.

Puntare il mouse per vedere il nome della stazione.

Clicca sopra per visualizzare le osservazioni e previsioni meteorologiche.

Per cambiare la mappa : fare clic sui pulsanti verdi con una croce nera per ingrandire, il pulsante verde con un trattino per diminuire, o sulla freccia verde per le mappe adiacenti.


METAR-TAF: